sensor_id;sensor_type;location;lat;lon;timestamp;pressure;altitude;pressure_sealevel;temperature;humidity
25232;BME280;13176;51.140;6.290;2023-05-14T00:00:57;101144.06;;;17.21;76.97
25232;BME280;13176;51.140;6.290;2023-05-14T00:03:23;101154.31;;;17.30;77.43
25232;BME280;13176;51.140;6.290;2023-05-14T00:05:50;101122.94;;;17.21;76.59
25232;BME280;13176;51.140;6.290;2023-05-14T00:08:16;101093.97;;;16.96;77.07
25232;BME280;13176;51.140;6.290;2023-05-14T00:10:42;101121.31;;;16.93;77.52
25232;BME280;13176;51.140;6.290;2023-05-14T00:13:09;101119.41;;;16.97;77.17
25232;BME280;13176;51.140;6.290;2023-05-14T00:15:35;101097.81;;;16.86;77.89
25232;BME280;13176;51.140;6.290;2023-05-14T00:18:02;101138.31;;;17.11;77.17
25232;BME280;13176;51.140;6.290;2023-05-14T00:20:29;101098.69;;;16.86;77.70
25232;BME280;13176;51.140;6.290;2023-05-14T00:22:55;101105.44;;;16.95;77.47
25232;BME280;13176;51.140;6.290;2023-05-14T00:25:22;101118.41;;;17.01;77.27
25232;BME280;13176;51.140;6.290;2023-05-14T00:27:48;101142.53;;;16.89;77.79
25232;BME280;13176;51.140;6.290;2023-05-14T00:30:14;101148.72;;;16.88;78.46
25232;BME280;13176;51.140;6.290;2023-05-14T00:32:41;101139.91;;;16.89;77.92
25232;BME280;13176;51.140;6.290;2023-05-14T00:35:07;101141.38;;;16.97;77.93
25232;BME280;13176;51.140;6.290;2023-05-14T00:37:34;101122.25;;;16.91;76.99
25232;BME280;13176;51.140;6.290;2023-05-14T00:40:02;101137.88;;;16.97;76.26
25232;BME280;13176;51.140;6.290;2023-05-14T00:42:28;101082.91;;;16.59;75.71
25232;BME280;13176;51.140;6.290;2023-05-14T00:44:55;101136.53;;;16.84;75.74
25232;BME280;13176;51.140;6.290;2023-05-14T00:47:21;101104.53;;;16.41;76.83
25232;BME280;13176;51.140;6.290;2023-05-14T00:49:48;101058.44;;;15.99;78.17
25232;BME280;13176;51.140;6.290;2023-05-14T00:52:15;101105.09;;;16.23;79.14
25232;BME280;13176;51.140;6.290;2023-05-14T00:54:41;101100.06;;;16.44;78.37
25232;BME280;13176;51.140;6.290;2023-05-14T00:57:08;101098.91;;;16.53;77.08
25232;BME280;13176;51.140;6.290;2023-05-14T00:59:34;101067.50;;;16.18;78.52
25232;BME280;13176;51.140;6.290;2023-05-14T01:02:01;101075.94;;;16.29;77.91
25232;BME280;13176;51.140;6.290;2023-05-14T01:04:27;101078.50;;;16.32;76.98
25232;BME280;13176;51.140;6.290;2023-05-14T01:07:19;101128.88;;;16.49;77.98
25232;BME280;13176;51.140;6.290;2023-05-14T01:09:52;101124.69;;;16.43;78.68
25232;BME280;13176;51.140;6.290;2023-05-14T01:12:26;101000.00;;;15.59;78.42
25232;BME280;13176;51.140;6.290;2023-05-14T01:15:10;101115.19;;;16.38;78.48
25232;BME280;13176;51.140;6.290;2023-05-14T01:17:45;101128.44;;;16.62;77.47
25232;BME280;13176;51.140;6.290;2023-05-14T01:20:12;100978.56;;;15.71;77.51
25232;BME280;13176;51.140;6.290;2023-05-14T01:22:38;100978.03;;;15.89;77.16
25232;BME280;13176;51.140;6.290;2023-05-14T01:25:05;101102.06;;;16.64;76.84
25232;BME280;13176;51.140;6.290;2023-05-14T01:27:42;101100.53;;;16.57;76.54
25232;BME280;13176;51.140;6.290;2023-05-14T01:30:24;101095.94;;;16.36;77.19
25232;BME280;13176;51.140;6.290;2023-05-14T01:32:55;101094.63;;;16.20;79.04
25232;BME280;13176;51.140;6.290;2023-05-14T01:35:26;101070.69;;;16.00;79.37
25232;BME280;13176;51.140;6.290;2023-05-14T01:37:55;101123.22;;;16.33;76.76
25232;BME280;13176;51.140;6.290;2023-05-14T01:40:23;101144.81;;;16.15;76.32
25232;BME280;13176;51.140;6.290;2023-05-14T01:42:51;101128.28;;;15.82;79.84
25232;BME280;13176;51.140;6.290;2023-05-14T01:45:19;101089.72;;;15.79;79.24
25232;BME280;13176;51.140;6.290;2023-05-14T01:47:46;101104.78;;;15.74;79.05
25232;BME280;13176;51.140;6.290;2023-05-14T01:50:13;101073.19;;;15.74;78.13
25232;BME280;13176;51.140;6.290;2023-05-14T01:52:39;101120.31;;;15.83;77.52
25232;BME280;13176;51.140;6.290;2023-05-14T01:55:06;101098.91;;;15.65;79.72
25232;BME280;13176;51.140;6.290;2023-05-14T01:57:33;101099.69;;;15.68;79.37
25232;BME280;13176;51.140;6.290;2023-05-14T01:59:59;101102.47;;;15.93;78.44
25232;BME280;13176;51.140;6.290;2023-05-14T02:02:25;101084.38;;;15.82;77.76
25232;BME280;13176;51.140;6.290;2023-05-14T02:04:52;101071.47;;;15.73;76.98
25232;BME280;13176;51.140;6.290;2023-05-14T02:07:18;101107.16;;;15.83;77.04
25232;BME280;13176;51.140;6.290;2023-05-14T02:09:44;101112.66;;;15.76;78.86
25232;BME280;13176;51.140;6.290;2023-05-14T02:12:11;101113.19;;;15.87;77.45
25232;BME280;13176;51.140;6.290;2023-05-14T02:14:37;101024.25;;;15.38;78.03
25232;BME280;13176;51.140;6.290;2023-05-14T02:17:04;101081.25;;;15.70;77.76
25232;BME280;13176;51.140;6.290;2023-05-14T02:19:30;101081.38;;;15.65;78.41
25232;BME280;13176;51.140;6.290;2023-05-14T02:21:58;101106.91;;;15.92;77.76
25232;BME280;13176;51.140;6.290;2023-05-14T02:24:26;101107.97;;;15.85;77.74
25232;BME280;13176;51.140;6.290;2023-05-14T02:26:52;101044.47;;;15.36;77.72
25232;BME280;13176;51.140;6.290;2023-05-14T02:29:19;101081.22;;;15.39;78.88
25232;BME280;13176;51.140;6.290;2023-05-14T02:31:45;101033.38;;;15.25;78.30
25232;BME280;13176;51.140;6.290;2023-05-14T02:34:12;100981.63;;;14.95;77.91
25232;BME280;13176;51.140;6.290;2023-05-14T02:36:38;101094.63;;;15.62;77.60
25232;BME280;13176;51.140;6.290;2023-05-14T02:39:05;101039.31;;;15.33;77.38
25232;BME280;13176;51.140;6.290;2023-05-14T02:41:31;101041.22;;;15.28;77.12
25232;BME280;13176;51.140;6.290;2023-05-14T02:43:58;101068.56;;;15.20;77.21
25232;BME280;13176;51.140;6.290;2023-05-14T02:46:24;101066.53;;;14.97;79.34
25232;BME280;13176;51.140;6.290;2023-05-14T02:48:51;101025.66;;;14.87;78.55
25232;BME280;13176;51.140;6.290;2023-05-14T02:51:19;101051.34;;;15.08;78.37
25232;BME280;13176;51.140;6.290;2023-05-14T02:53:46;101039.09;;;15.09;77.45
25232;BME280;13176;51.140;6.290;2023-05-14T02:56:12;101064.34;;;15.14;78.46
25232;BME280;13176;51.140;6.290;2023-05-14T02:58:38;101093.66;;;15.65;75.92
25232;BME280;13176;51.140;6.290;2023-05-14T03:01:05;101073.38;;;15.68;74.84
25232;BME280;13176;51.140;6.290;2023-05-14T03:03:32;101081.13;;;15.42;76.49
25232;BME280;13176;51.140;6.290;2023-05-14T03:05:59;101074.50;;;15.29;77.77
25232;BME280;13176;51.140;6.290;2023-05-14T03:08:25;101095.03;;;15.47;77.48
25232;BME280;13176;51.140;6.290;2023-05-14T03:10:52;101070.03;;;15.31;77.11
25232;BME280;13176;51.140;6.290;2023-05-14T03:13:18;101069.53;;;15.17;77.25
25232;BME280;13176;51.140;6.290;2023-05-14T03:15:45;101061.94;;;15.05;77.05
25232;BME280;13176;51.140;6.290;2023-05-14T03:18:13;101091.56;;;15.12;78.25
25232;BME280;13176;51.140;6.290;2023-05-14T03:20:40;101090.19;;;14.97;78.50
25232;BME280;13176;51.140;6.290;2023-05-14T03:23:07;101054.59;;;14.86;78.31
25232;BME280;13176;51.140;6.290;2023-05-14T03:25:33;101070.53;;;14.79;78.36
25232;BME280;13176;51.140;6.290;2023-05-14T03:27:59;101084.50;;;14.81;79.24
25232;BME280;13176;51.140;6.290;2023-05-14T03:30:26;101065.66;;;14.64;78.61
25232;BME280;13176;51.140;6.290;2023-05-14T03:32:52;101066.69;;;14.58;79.58
25232;BME280;13176;51.140;6.290;2023-05-14T03:35:20;101021.97;;;14.25;80.88
25232;BME280;13176;51.140;6.290;2023-05-14T03:37:46;100961.78;;;14.19;79.91
25232;BME280;13176;51.140;6.290;2023-05-14T03:40:12;101068.69;;;14.83;79.37
25232;BME280;13176;51.140;6.290;2023-05-14T03:42:39;100981.22;;;14.45;78.97
25232;BME280;13176;51.140;6.290;2023-05-14T03:45:06;101057.00;;;14.93;78.45
25232;BME280;13176;51.140;6.290;2023-05-14T03:47:32;101070.00;;;14.99;77.93
25232;BME280;13176;51.140;6.290;2023-05-14T03:49:59;101013.66;;;14.78;77.68
25232;BME280;13176;51.140;6.290;2023-05-14T03:52:25;101063.75;;;15.03;77.44
25232;BME280;13176;51.140;6.290;2023-05-14T03:54:52;101018.22;;;14.70;77.46
25232;BME280;13176;51.140;6.290;2023-05-14T03:57:18;100970.00;;;14.39;77.22
25232;BME280;13176;51.140;6.290;2023-05-14T03:59:44;100968.34;;;14.35;77.16
25232;BME280;13176;51.140;6.290;2023-05-14T04:02:11;101056.38;;;14.84;78.16
25232;BME280;13176;51.140;6.290;2023-05-14T04:04:37;101010.66;;;14.58;77.15
25232;BME280;13176;51.140;6.290;2023-05-14T04:07:04;101056.28;;;14.88;76.97
25232;BME280;13176;51.140;6.290;2023-05-14T04:09:30;101007.88;;;14.64;77.56
25232;BME280;13176;51.140;6.290;2023-05-14T04:11:56;101058.84;;;14.91;76.36
25232;BME280;13176;51.140;6.290;2023-05-14T04:14:23;100982.31;;;14.37;76.68
25232;BME280;13176;51.140;6.290;2023-05-14T04:16:49;101002.47;;;14.36;77.20
25232;BME280;13176;51.140;6.290;2023-05-14T04:19:16;101034.41;;;14.53;78.54
25232;BME280;13176;51.140;6.290;2023-05-14T04:21:43;101056.72;;;14.71;77.98
25232;BME280;13176;51.140;6.290;2023-05-14T04:24:09;101051.53;;;14.68;78.08
25232;BME280;13176;51.140;6.290;2023-05-14T04:26:35;101044.50;;;14.70;77.17
25232;BME280;13176;51.140;6.290;2023-05-14T04:29:02;101010.91;;;14.49;77.54
25232;BME280;13176;51.140;6.290;2023-05-14T04:31:29;101045.31;;;14.72;77.34
25232;BME280;13176;51.140;6.290;2023-05-14T04:33:55;101039.09;;;14.76;77.99
25232;BME280;13176;51.140;6.290;2023-05-14T04:36:21;101071.78;;;14.97;77.61
25232;BME280;13176;51.140;6.290;2023-05-14T04:38:48;101056.44;;;14.82;77.50
25232;BME280;13176;51.140;6.290;2023-05-14T04:41:14;101053.97;;;14.75;77.62
25232;BME280;13176;51.140;6.290;2023-05-14T04:43:40;100973.59;;;14.35;77.91
25232;BME280;13176;51.140;6.290;2023-05-14T04:46:07;101046.28;;;14.69;78.80
25232;BME280;13176;51.140;6.290;2023-05-14T04:48:34;101041.88;;;14.70;78.78
25232;BME280;13176;51.140;6.290;2023-05-14T04:51:00;101065.91;;;14.89;78.61
25232;BME280;13176;51.140;6.290;2023-05-14T04:53:27;101059.56;;;14.96;77.48
25232;BME280;13176;51.140;6.290;2023-05-14T04:55:53;100994.88;;;14.59;77.79
25232;BME280;13176;51.140;6.290;2023-05-14T04:58:20;101006.22;;;14.60;78.13
25232;BME280;13176;51.140;6.290;2023-05-14T05:00:48;101004.69;;;14.53;78.38
25232;BME280;13176;51.140;6.290;2023-05-14T05:03:15;101026.19;;;14.67;79.66
25232;BME280;13176;51.140;6.290;2023-05-14T05:05:41;101042.94;;;14.96;78.34
25232;BME280;13176;51.140;6.290;2023-05-14T05:08:08;101024.00;;;14.83;78.56
25232;BME280;13176;51.140;6.290;2023-05-14T05:10:36;101076.81;;;15.06;78.98
25232;BME280;13176;51.140;6.290;2023-05-14T05:13:02;101064.16;;;14.88;79.95
25232;BME280;13176;51.140;6.290;2023-05-14T05:15:29;100975.25;;;14.39;80.07
25232;BME280;13176;51.140;6.290;2023-05-14T05:17:55;101054.56;;;14.87;80.49
25232;BME280;13176;51.140;6.290;2023-05-14T05:20:22;101056.38;;;14.85;80.35
25232;BME280;13176;51.140;6.290;2023-05-14T05:22:48;101065.00;;;14.90;80.92
25232;BME280;13176;51.140;6.290;2023-05-14T05:25:15;101004.47;;;14.60;81.25
25232;BME280;13176;51.140;6.290;2023-05-14T05:27:41;101044.19;;;14.82;81.82
25232;BME280;13176;51.140;6.290;2023-05-14T05:30:08;101091.53;;;15.13;82.30
25232;BME280;13176;51.140;6.290;2023-05-14T05:32:34;101054.94;;;15.06;82.62
25232;BME280;13176;51.140;6.290;2023-05-14T05:35:01;101060.75;;;15.18;82.12
25232;BME280;13176;51.140;6.290;2023-05-14T05:37:29;101010.38;;;15.01;81.99
25232;BME280;13176;51.140;6.290;2023-05-14T05:39:55;101063.72;;;15.38;82.03
25232;BME280;13176;51.140;6.290;2023-05-14T05:42:22;101050.47;;;15.41;82.05
25232;BME280;13176;51.140;6.290;2023-05-14T05:44:49;101048.59;;;15.46;81.95
25232;BME280;13176;51.140;6.290;2023-05-14T05:47:15;101054.59;;;15.51;81.89
25232;BME280;13176;51.140;6.290;2023-05-14T05:49:42;101062.16;;;15.63;82.11
25232;BME280;13176;51.140;6.290;2023-05-14T05:52:08;101054.34;;;15.60;82.62
25232;BME280;13176;51.140;6.290;2023-05-14T05:54:35;101044.06;;;15.51;83.16
25232;BME280;13176;51.140;6.290;2023-05-14T05:57:01;101059.31;;;15.69;83.44
25232;BME280;13176;51.140;6.290;2023-05-14T05:59:28;101042.84;;;15.63;83.74
25232;BME280;13176;51.140;6.290;2023-05-14T06:01:54;101038.88;;;15.79;83.37
25232;BME280;13176;51.140;6.290;2023-05-14T06:04:21;101065.53;;;15.96;83.15
25232;BME280;13176;51.140;6.290;2023-05-14T06:06:47;101041.28;;;15.86;83.13
25232;BME280;13176;51.140;6.290;2023-05-14T06:09:13;101058.22;;;16.05;83.18
25232;BME280;13176;51.140;6.290;2023-05-14T06:11:40;101073.75;;;16.14;82.84
25232;BME280;13176;51.140;6.290;2023-05-14T06:14:06;101066.66;;;16.16;83.00
25232;BME280;13176;51.140;6.290;2023-05-14T06:16:32;101059.69;;;16.15;82.95
25232;BME280;13176;51.140;6.290;2023-05-14T06:18:59;101040.63;;;16.07;82.80
25232;BME280;13176;51.140;6.290;2023-05-14T06:21:25;101063.03;;;16.20;82.73
25232;BME280;13176;51.140;6.290;2023-05-14T06:23:51;101033.50;;;16.10;82.67
25232;BME280;13176;51.140;6.290;2023-05-14T06:26:18;101057.59;;;16.26;82.10
25232;BME280;13176;51.140;6.290;2023-05-14T06:28:44;101030.88;;;16.10;81.85
25232;BME280;13176;51.140;6.290;2023-05-14T06:31:11;101072.66;;;16.50;81.77
25232;BME280;13176;51.140;6.290;2023-05-14T06:33:37;101032.91;;;16.28;81.13
25232;BME280;13176;51.140;6.290;2023-05-14T06:36:05;101091.44;;;16.67;80.89
25232;BME280;13176;51.140;6.290;2023-05-14T06:38:31;101057.25;;;16.64;80.31
25232;BME280;13176;51.140;6.290;2023-05-14T06:40:58;101042.75;;;16.51;79.74
25232;BME280;13176;51.140;6.290;2023-05-14T06:43:24;101063.63;;;16.83;79.55
25232;BME280;13176;51.140;6.290;2023-05-14T06:45:51;101086.66;;;17.04;79.44
25232;BME280;13176;51.140;6.290;2023-05-14T06:48:18;101053.41;;;17.00;78.02
25232;BME280;13176;51.140;6.290;2023-05-14T06:50:45;101026.63;;;16.86;77.96
25232;BME280;13176;51.140;6.290;2023-05-14T06:53:13;101083.44;;;17.20;77.91
25232;BME280;13176;51.140;6.290;2023-05-14T06:55:39;101080.16;;;17.39;77.24
25232;BME280;13176;51.140;6.290;2023-05-14T06:58:06;101076.38;;;17.46;76.84
25232;BME280;13176;51.140;6.290;2023-05-14T07:00:33;101038.19;;;17.32;76.74
25232;BME280;13176;51.140;6.290;2023-05-14T07:02:59;101063.97;;;17.48;76.50
25232;BME280;13176;51.140;6.290;2023-05-14T07:05:26;101060.41;;;17.49;76.41
25232;BME280;13176;51.140;6.290;2023-05-14T07:07:52;101050.66;;;17.51;76.29
25232;BME280;13176;51.140;6.290;2023-05-14T07:10:18;101062.34;;;17.69;76.12
25232;BME280;13176;51.140;6.290;2023-05-14T07:12:45;100981.31;;;17.23;75.56
25232;BME280;13176;51.140;6.290;2023-05-14T07:15:12;100994.09;;;17.35;75.63
25232;BME280;13176;51.140;6.290;2023-05-14T07:17:38;101065.63;;;17.98;75.63
25232;BME280;13176;51.140;6.290;2023-05-14T07:20:05;101054.09;;;18.01;74.91
25232;BME280;13176;51.140;6.290;2023-05-14T07:22:32;100990.78;;;17.76;74.64
25232;BME280;13176;51.140;6.290;2023-05-14T07:24:58;101049.31;;;18.10;72.80
25232;BME280;13176;51.140;6.290;2023-05-14T07:27:25;100973.22;;;17.75;72.52
25232;BME280;13176;51.140;6.290;2023-05-14T07:29:51;100916.34;;;17.45;72.84
25232;BME280;13176;51.140;6.290;2023-05-14T07:32:17;100880.81;;;17.31;71.67
25232;BME280;13176;51.140;6.290;2023-05-14T07:34:44;100959.38;;;17.92;71.53
25232;BME280;13176;51.140;6.290;2023-05-14T07:37:10;101061.66;;;18.54;70.98
25232;BME280;13176;51.140;6.290;2023-05-14T07:39:36;100988.88;;;18.24;71.37
25232;BME280;13176;51.140;6.290;2023-05-14T07:42:03;101064.00;;;18.61;70.37
25232;BME280;13176;51.140;6.290;2023-05-14T07:44:30;100985.94;;;18.32;69.67
25232;BME280;13176;51.140;6.290;2023-05-14T07:46:56;101016.66;;;18.55;70.37
25232;BME280;13176;51.140;6.290;2023-05-14T07:49:23;101036.38;;;18.68;70.00
25232;BME280;13176;51.140;6.290;2023-05-14T07:51:49;101042.69;;;18.86;69.63
25232;BME280;13176;51.140;6.290;2023-05-14T07:54:15;101054.19;;;19.05;69.46
25232;BME280;13176;51.140;6.290;2023-05-14T07:56:42;101061.69;;;19.15;69.83
25232;BME280;13176;51.140;6.290;2023-05-14T07:59:08;101035.31;;;19.14;69.85
25232;BME280;13176;51.140;6.290;2023-05-14T08:01:34;101041.94;;;19.24;68.52
25232;BME280;13176;51.140;6.290;2023-05-14T08:04:04;101082.81;;;19.37;67.90
25232;BME280;13176;51.140;6.290;2023-05-14T08:06:31;101058.06;;;19.38;68.08
25232;BME280;13176;51.140;6.290;2023-05-14T08:08:57;101053.25;;;19.47;69.00
25232;BME280;13176;51.140;6.290;2023-05-14T08:11:24;101046.28;;;19.45;69.65
25232;BME280;13176;51.140;6.290;2023-05-14T08:13:51;100976.19;;;19.15;68.36
25232;BME280;13176;51.140;6.290;2023-05-14T08:16:17;100975.31;;;19.14;68.35
25232;BME280;13176;51.140;6.290;2023-05-14T08:18:44;101047.69;;;19.71;68.60
25232;BME280;13176;51.140;6.290;2023-05-14T08:21:10;101012.53;;;19.50;67.08
25232;BME280;13176;51.140;6.290;2023-05-14T08:23:37;101031.38;;;19.80;66.74
25232;BME280;13176;51.140;6.290;2023-05-14T08:26:03;101017.34;;;19.78;67.40
25232;BME280;13176;51.140;6.290;2023-05-14T08:28:29;101051.78;;;19.98;67.26
25232;BME280;13176;51.140;6.290;2023-05-14T08:30:56;101037.09;;;20.10;67.89
25232;BME280;13176;51.140;6.290;2023-05-14T08:33:22;100990.69;;;20.01;66.13
25232;BME280;13176;51.140;6.290;2023-05-14T08:35:51;101067.69;;;20.52;64.74
25232;BME280;13176;51.140;6.290;2023-05-14T08:38:17;100961.78;;;19.95;66.16
25232;BME280;13176;51.140;6.290;2023-05-14T08:40:50;101069.94;;;20.78;66.49
25232;BME280;13176;51.140;6.290;2023-05-14T08:43:27;101051.09;;;20.84;65.39
25232;BME280;13176;51.140;6.290;2023-05-14T08:46:00;101015.81;;;20.82;65.50
25232;BME280;13176;51.140;6.290;2023-05-14T08:48:31;100966.38;;;20.63;66.27
25232;BME280;13176;51.140;6.290;2023-05-14T08:50:58;101056.25;;;21.21;66.27
25232;BME280;13176;51.140;6.290;2023-05-14T08:53:25;100969.75;;;20.83;66.51
25232;BME280;13176;51.140;6.290;2023-05-14T08:55:52;101056.53;;;21.49;67.00
25232;BME280;13176;51.140;6.290;2023-05-14T08:58:19;101010.63;;;21.47;67.30
25232;BME280;13176;51.140;6.290;2023-05-14T09:00:46;100984.06;;;21.47;66.12
25232;BME280;13176;51.140;6.290;2023-05-14T09:03:13;100984.97;;;21.63;66.28
25232;BME280;13176;51.140;6.290;2023-05-14T09:05:40;101004.88;;;21.87;64.68
25232;BME280;13176;51.140;6.290;2023-05-14T09:08:07;101020.31;;;21.95;64.67
25232;BME280;13176;51.140;6.290;2023-05-14T09:10:33;100980.72;;;21.76;65.28
25232;BME280;13176;51.140;6.290;2023-05-14T09:13:01;101042.47;;;22.27;62.89
25232;BME280;13176;51.140;6.290;2023-05-14T09:15:27;100997.72;;;22.19;62.46
25232;BME280;13176;51.140;6.290;2023-05-14T09:17:55;101022.16;;;22.26;60.94
25232;BME280;13176;51.140;6.290;2023-05-14T09:20:23;101012.28;;;22.12;61.13
25232;BME280;13176;51.140;6.290;2023-05-14T09:22:53;100977.13;;;22.07;59.39
25232;BME280;13176;51.140;6.290;2023-05-14T09:25:25;100989.47;;;22.24;58.75
25232;BME280;13176;51.140;6.290;2023-05-14T09:27:52;101041.50;;;22.74;58.98
25232;BME280;13176;51.140;6.290;2023-05-14T09:30:24;101027.38;;;22.58;57.47
25232;BME280;13176;51.140;6.290;2023-05-14T09:32:52;101026.59;;;22.72;57.76
25232;BME280;13176;51.140;6.290;2023-05-14T09:35:21;101013.13;;;22.59;58.80
25232;BME280;13176;51.140;6.290;2023-05-14T09:37:52;101054.38;;;22.82;56.36
25232;BME280;13176;51.140;6.290;2023-05-14T09:40:20;101034.72;;;22.84;57.82
25232;BME280;13176;51.140;6.290;2023-05-14T09:42:48;101051.50;;;23.00;57.08
25232;BME280;13176;51.140;6.290;2023-05-14T09:45:15;101008.75;;;22.88;55.77
25232;BME280;13176;51.140;6.290;2023-05-14T09:47:41;101048.72;;;23.17;53.69
25232;BME280;13176;51.140;6.290;2023-05-14T09:50:08;101024.97;;;23.28;51.89
25232;BME280;13176;51.140;6.290;2023-05-14T09:52:37;101032.97;;;23.70;52.62
25232;BME280;13176;51.140;6.290;2023-05-14T09:55:04;101002.88;;;23.68;50.96
25232;BME280;13176;51.140;6.290;2023-05-14T09:57:31;100959.13;;;23.30;50.11
25232;BME280;13176;51.140;6.290;2023-05-14T09:59:58;101001.47;;;23.76;49.13
25232;BME280;13176;51.140;6.290;2023-05-14T10:02:28;101009.03;;;23.84;50.04
25232;BME280;13176;51.140;6.290;2023-05-14T10:04:59;100997.78;;;23.93;48.15
25232;BME280;13176;51.140;6.290;2023-05-14T10:07:32;101004.25;;;24.03;50.16
25232;BME280;13176;51.140;6.290;2023-05-14T10:10:01;100996.19;;;24.17;48.04
25232;BME280;13176;51.140;6.290;2023-05-14T10:12:32;101016.16;;;24.37;47.55
25232;BME280;13176;51.140;6.290;2023-05-14T10:15:02;101032.63;;;24.44;46.98
25232;BME280;13176;51.140;6.290;2023-05-14T10:17:30;101022.63;;;24.47;46.30
25232;BME280;13176;51.140;6.290;2023-05-14T10:19:57;101018.00;;;24.63;48.13
25232;BME280;13176;51.140;6.290;2023-05-14T10:22:32;100990.19;;;24.53;50.76
25232;BME280;13176;51.140;6.290;2023-05-14T10:24:59;100976.56;;;24.58;50.75
25232;BME280;13176;51.140;6.290;2023-05-14T10:27:27;101003.13;;;24.59;49.08
25232;BME280;13176;51.140;6.290;2023-05-14T10:29:54;100975.44;;;24.74;50.31
25232;BME280;13176;51.140;6.290;2023-05-14T10:32:22;101001.44;;;24.97;48.68
25232;BME280;13176;51.140;6.290;2023-05-14T10:34:51;100992.91;;;24.66;48.47
25232;BME280;13176;51.140;6.290;2023-05-14T10:37:20;101015.38;;;24.49;48.06
25232;BME280;13176;51.140;6.290;2023-05-14T10:39:49;100984.44;;;24.59;48.88
25232;BME280;13176;51.140;6.290;2023-05-14T10:42:18;100978.53;;;24.93;49.81
25232;BME280;13176;51.140;6.290;2023-05-14T10:45:03;100955.09;;;25.23;49.17
25232;BME280;13176;51.140;6.290;2023-05-14T10:47:34;100992.69;;;25.95;44.72
25232;BME280;13176;51.140;6.290;2023-05-14T10:50:03;100966.75;;;26.08;42.20
25232;BME280;13176;51.140;6.290;2023-05-14T10:52:30;100989.50;;;27.85;40.51
25232;BME280;13176;51.140;6.290;2023-05-14T10:54:59;100983.44;;;29.90;36.41
25232;BME280;13176;51.140;6.290;2023-05-14T10:57:31;100961.78;;;31.07;33.51
25232;BME280;13176;51.140;6.290;2023-05-14T11:00:01;100947.97;;;31.19;33.16
25232;BME280;13176;51.140;6.290;2023-05-14T11:02:32;100960.06;;;30.49;33.04
25232;BME280;13176;51.140;6.290;2023-05-14T11:05:01;100939.38;;;29.52;33.56
25232;BME280;13176;51.140;6.290;2023-05-14T11:07:34;100980.03;;;29.88;33.92
25232;BME280;13176;51.140;6.290;2023-05-14T11:10:04;100953.19;;;30.07;30.52
25232;BME280;13176;51.140;6.290;2023-05-14T11:12:36;100944.72;;;30.49;32.36
25232;BME280;13176;51.140;6.290;2023-05-14T11:15:06;100929.28;;;30.42;32.70
25232;BME280;13176;51.140;6.290;2023-05-14T11:17:35;100915.25;;;29.80;30.21
25232;BME280;13176;51.140;6.290;2023-05-14T11:20:03;100959.63;;;29.95;31.66
25232;BME280;13176;51.140;6.290;2023-05-14T11:22:31;100936.13;;;29.97;31.34
25232;BME280;13176;51.140;6.290;2023-05-14T11:24:57;100948.03;;;29.95;32.06
25232;BME280;13176;51.140;6.290;2023-05-14T11:27:24;100926.59;;;30.80;29.83
25232;BME280;13176;51.140;6.290;2023-05-14T11:29:51;100927.44;;;30.71;30.86
25232;BME280;13176;51.140;6.290;2023-05-14T11:32:18;100946.75;;;30.76;31.51
25232;BME280;13176;51.140;6.290;2023-05-14T11:34:45;100936.94;;;31.03;28.55
25232;BME280;13176;51.140;6.290;2023-05-14T11:37:13;100914.09;;;30.41;29.16
25232;BME280;13176;51.140;6.290;2023-05-14T11:39:54;100914.47;;;29.59;30.41
25232;BME280;13176;51.140;6.290;2023-05-14T11:42:21;100904.97;;;29.35;29.68
25232;BME280;13176;51.140;6.290;2023-05-14T11:44:49;100935.94;;;30.19;30.79
25232;BME280;13176;51.140;6.290;2023-05-14T11:47:20;100893.97;;;30.45;31.10
25232;BME280;13176;51.140;6.290;2023-05-14T11:49:47;100928.31;;;30.62;29.97
25232;BME280;13176;51.140;6.290;2023-05-14T11:52:15;100920.47;;;29.72;27.54
25232;BME280;13176;51.140;6.290;2023-05-14T11:54:44;100882.50;;;29.75;27.57
25232;BME280;13176;51.140;6.290;2023-05-14T11:57:18;100915.50;;;30.26;30.53
25232;BME280;13176;51.140;6.290;2023-05-14T11:59:45;100919.06;;;30.36;30.09
25232;BME280;13176;51.140;6.290;2023-05-14T12:02:16;100918.09;;;30.65;29.14
25232;BME280;13176;51.140;6.290;2023-05-14T12:04:44;100907.84;;;30.12;28.89
25232;BME280;13176;51.140;6.290;2023-05-14T12:07:15;100910.09;;;30.26;30.76
25232;BME280;13176;51.140;6.290;2023-05-14T12:09:43;100871.25;;;30.00;29.67
25232;BME280;13176;51.140;6.290;2023-05-14T12:12:20;100869.56;;;30.18;29.58
25232;BME280;13176;51.140;6.290;2023-05-14T12:14:48;100907.44;;;29.77;26.50
25232;BME280;13176;51.140;6.290;2023-05-14T12:17:21;100864.31;;;28.99;29.45
25232;BME280;13176;51.140;6.290;2023-05-14T12:19:50;100904.81;;;29.47;29.39
25232;BME280;13176;51.140;6.290;2023-05-14T12:22:19;100884.50;;;29.92;26.98
25232;BME280;13176;51.140;6.290;2023-05-14T12:24:56;100905.34;;;29.41;26.19
25232;BME280;13176;51.140;6.290;2023-05-14T12:27:27;100897.63;;;28.87;28.81
25232;BME280;13176;51.140;6.290;2023-05-14T12:30:05;100873.13;;;27.97;28.04
25232;BME280;13176;51.140;6.290;2023-05-14T12:32:47;100890.69;;;28.64;30.11
25232;BME280;13176;51.140;6.290;2023-05-14T12:35:17;100879.38;;;28.29;29.89
25232;BME280;13176;51.140;6.290;2023-05-14T12:37:43;100835.59;;;27.64;30.75
25232;BME280;13176;51.140;6.290;2023-05-14T12:40:10;100846.69;;;27.60;32.34
25232;BME280;13176;51.140;6.290;2023-05-14T12:42:36;100846.59;;;27.50;32.54
25232;BME280;13176;51.140;6.290;2023-05-14T12:45:03;100819.47;;;27.75;33.25
25232;BME280;13176;51.140;6.290;2023-05-14T12:47:33;100863.13;;;28.51;30.42
25232;BME280;13176;51.140;6.290;2023-05-14T12:49:59;100859.25;;;29.05;28.81
25232;BME280;13176;51.140;6.290;2023-05-14T12:52:26;100841.25;;;29.26;29.37